Jack Holland — WDF3615 — position and weather

sailwx.info

Track history (hours):
 
Tides and Currents Weather Stations Pressure Air Temp Water Temp Dewpoint Dewpoint Depression Visibility Wind Speed Wind Dir Waves Ship Positions

Jack Holland

More information available from US FCC via Universal Licensing System and Coast Guard Vessel Documentation Center.

Last reported at 2014-Jul-25 20:32 UTC. Time now 2014-Jul-25 20:43 UTC.
Position N 25°49' W 080°10'.

Length 22 m; draft 2.5 m.

Type: Tug. MMSI: 367442020.

Date/timePositionNaut miles runAvg speedWind from/ knotsBaromVisibWave heightAir tempDewpointWater temp
2014-Jul-25 20:32N 25°49' W 080°10'0 0.0
2014-Jul-25 19:23N 25°49' W 080°10'1 0.9
2014-Jul-25 18:24N 25°49' W 080°11'4 1.8
2014-Jul-25 16:28N 25°46' W 080°08'0 0.1
2014-Jul-25 15:24N 25°46' W 080°08'0 0.0
2014-Jul-25 14:19N 25°46' W 080°08'0 0.0
2014-Jul-25 13:33N 25°46' W 080°08'2 0.5
2014-Jul-25 10:15N 25°46' W 080°10'0 0.6
2014-Jul-25 09:31N 25°46' W 080°09'1 1.1
2014-Jul-25 08:19N 25°46' W 080°08'0 0.0
2014-Jul-25 07:33N 25°46' W 080°08'3 2.7
2014-Jul-25 06:21N 25°48' W 080°11'2 2.1
2014-Jul-25 05:33N 25°49' W 080°10'0 0.0
2014-Jul-25 04:21N 25°49' W 080°10'0 0.0
2014-Jul-25 02:31N 25°49' W 080°10'0 0.0
2014-Jul-24 22:11N 25°49' W 080°10'0 0.0
2014-Jul-24 21:26N 25°49' W 080°10'0 0.0
2014-Jul-24 20:30N 25°49' W 080°10'0 0.0
2014-Jul-24 18:23N 25°49' W 080°10'0 0.0
2014-Jul-24 17:31N 25°49' W 080°10'2 1.7
2014-Jul-24 16:32N 25°48' W 080°11'3 2.5
2014-Jul-24 15:16N 25°46' W 080°08'0 0.0
2014-Jul-24 14:05N 25°46' W 080°08'0 0.0
2014-Jul-24 13:17N 25°46' W 080°08'0 0.0
2014-Jul-24 12:33N 25°46' W 080°08'0 0.0
2014-Jul-24 11:33N 25°46' W 080°08'2 0.8
2014-Jul-24 08:33N 25°47' W 080°10'1 0.9
2014-Jul-24 07:29N 25°48' W 080°11'1 0.1
2014-Jul-23 19:31N 25°49' W 080°10'1 0.8
2014-Jul-23 18:32N 25°48' W 080°11'1 0.7
2014-Jul-23 17:03N 25°49' W 080°10'0 0.0
2014-Jul-23 16:26N 25°49' W 080°10'0 0.0
2014-Jul-23 15:32N 25°49' W 080°10'0 0.0
2014-Jul-23 14:18N 25°49' W 080°10'1 1.1
2014-Jul-23 13:31N 25°49' W 080°11'0 0.0
2014-Jul-23 11:18N 25°49' W 080°11'1 0.1
2014-Jul-23 04:10N 25°49' W 080°10'0 0.0
2014-Jul-22 01:33N 25°49' W 080°10'0 0.0
2014-Jul-21 22:09N 25°49' W 080°10'0 0.0
2014-Jul-21 20:31N 25°49' W 080°10'0 0.0
2014-Jul-21 20:18N 25°49' W 080°10'0 0.0
2014-Jul-21 19:33N 25°49' W 080°10'2 2.2
2014-Jul-21 18:33N 25°47' W 080°10'0 0.0
2014-Jul-21 13:23N 25°47' W 080°10'2 0.4
2014-Jul-21 08:28N 25°49' W 080°10'0 0.0
2014-Jul-21 07:12N 25°49' W 080°10'0 0.0
2014-Jul-21 06:26N 25°49' W 080°10'0 0.0
2014-Jul-20 23:26N 25°49' W 080°10'0 0.0
2014-Jul-20 21:07N 25°49' W 080°10'0 0.0
2014-Jul-20 19:33N 25°49' W 080°10'1 0.3
2014-Jul-20 17:24N 25°49' W 080°10'3 3.8
2014-Jul-20 16:31N 25°46' W 080°08'1 0.6
2014-Jul-20 15:32N 25°46' W 080°08'0 0.0
2014-Jul-20 14:33N 25°46' W 080°08'0 0.0
2014-Jul-20 13:29N 25°46' W 080°08'0 0.0
2014-Jul-20 12:29N 25°46' W 080°08'0 0.0
2014-Jul-20 11:33N 25°46' W 080°08'0 0.3
2014-Jul-20 10:33N 25°46' W 080°08'3 0.8
2014-Jul-20 07:23N 25°47' W 080°11'2 2.5
2014-Jul-20 06:33N 25°49' W 080°10'2 2.1
2014-Jul-20 05:31N 25°47' W 080°10'2 2.5
2014-Jul-20 04:33N 25°46' W 080°08'0 0.0
2014-Jul-20 03:33N 25°46' W 080°08'0 0.0
2014-Jul-20 02:33N 25°46' W 080°08'0 0.0
2014-Jul-20 01:33N 25°46' W 080°08'0 0.0
2014-Jul-20 00:31N 25°46' W 080°08'0 0.0
2014-Jul-19 23:33N 25°46' W 080°08'3 1.5
2014-Jul-19 21:16N 25°49' W 080°10'0 0.0
2014-Jul-19 19:28N 25°49' W 080°10'0 0.2
2014-Jul-19 18:08N 25°49' W 080°10'0 0.2
2014-Jul-19 17:11N 25°49' W 080°10'0 0.3
2014-Jul-19 16:19N 25°49' W 080°10'3 3.6
2014-Jul-19 15:33N 25°46' W 080°09'1 1.0
2014-Jul-19 14:31N 25°46' W 080°08'0 0.0
2014-Jul-19 13:33N 25°46' W 080°08'0 0.0
2014-Jul-19 12:32N 25°46' W 080°08'0 0.0
2014-Jul-19 11:33N 25°46' W 080°08'1 0.7
2014-Jul-19 09:28N 25°46' W 080°10'1 1.5
2014-Jul-19 08:33N 25°46' W 080°08'0 0.0
2014-Jul-19 06:33N 25°46' W 080°08'2 2.1
2014-Jul-19 05:28N 25°47' W 080°10'1 0.6
2014-Jul-19 04:08N 25°47' W 080°11'2 2.3
2014-Jul-19 03:20N 25°49' W 080°10'3 3.3
2014-Jul-19 02:31N 25°46' W 080°09'1 1.1
2014-Jul-19 01:33N 25°46' W 080°08'0 0.0
2014-Jul-19 00:33N 25°46' W 080°08'0 0.0
2014-Jul-18 21:27N 25°46' W 080°08'0 0.0
2014-Jul-18 20:29N 25°46' W 080°08'0 0.0
2014-Jul-18 19:30N 25°46' W 080°08'1 0.3
2014-Jul-18 17:25N 25°46' W 080°09'3 3.8
2014-Jul-18 16:33N 25°49' W 080°10'1 0.1
2014-Jul-18 12:13N 25°49' W 080°10'0 0.0
2014-Jul-18 11:28N 25°49' W 080°10'0 0.0
2014-Jul-18 10:25N 25°49' W 080°10'0 0.0
2014-Jul-18 09:28N 25°49' W 080°10'0 0.0
2014-Jul-18 08:33N 25°49' W 080°10'0 0.0
2014-Jul-18 07:32N 25°49' W 080°10'0 0.0
2014-Jul-18 06:32N 25°49' W 080°10'0 0.0
2014-Jul-18 05:20N 25°49' W 080°10'0 0.0
2014-Jul-18 04:32N 25°49' W 080°10'0 0.0
2014-Jul-18 03:32N 25°49' W 080°10'0 0.0
2014-Jul-17 20:14N 25°49' W 080°10'0 0.0
2014-Jul-17 18:15N 25°49' W 080°10'0 0.0
2014-Jul-17 17:29N 25°49' W 080°10'0 0.0
2014-Jul-17 14:15N 25°49' W 080°10'0 0.0
2014-Jul-17 13:20N 25°49' W 080°10'0 0.0
2014-Jul-17 12:31N 25°49' W 080°10'0 0.0
2014-Jul-17 11:28N 25°49' W 080°10'0 0.0
2014-Jul-17 10:30N 25°49' W 080°10'0 0.0
2014-Jul-17 09:33N 25°49' W 080°10'0 0.0
2014-Jul-17 08:27N 25°49' W 080°10'0 0.0
2014-Jul-17 07:20N 25°49' W 080°10'0 0.0
2014-Jul-17 06:33N 25°49' W 080°10'0 0.0
2014-Jul-17 05:33N 25°49' W 080°10'0 0.0
2014-Jul-17 04:23N 25°49' W 080°10'2 2.4
2014-Jul-17 03:29N 25°47' W 080°11'1 1.2
2014-Jul-17 02:32N 25°46' W 080°10'2 0.4
2014-Jul-16 20:29N 25°48' W 080°11'2 2.1
2014-Jul-16 19:22N 25°46' W 080°09'3 3.8
2014-Jul-16 18:33N 25°46' W 080°06'0 0.0
2014-Jul-16 17:33N 25°46' W 080°06'0 0.0
2014-Jul-16 16:33N 25°46' W 080°06'0 0.0
2014-Jul-16 15:33N 25°46' W 080°06'2 2.1
2014-Jul-16 14:32N 25°46' W 080°08'2 0.8
2014-Jul-16 12:22N 25°47' W 080°10'2 2.1
2014-Jul-16 11:18N 25°49' W 080°10'2 3.0
2014-Jul-16 10:32N 25°46' W 080°10'4 3.6
2014-Jul-16 09:33N 25°46' W 080°06'0 0.0
2014-Jul-16 08:33N 25°46' W 080°06'3 2.5
2014-Jul-16 07:31N 25°46' W 080°09'3 3.2
2014-Jul-16 06:33N 25°49' W 080°10'1 1.4
2014-Jul-16 05:33N 25°48' W 080°11'4 3.8
2014-Jul-16 04:34N 25°46' W 080°07'1 1.5
2014-Jul-16 03:34N 25°46' W 080°06'1 1.1
2014-Jul-16 02:32N 25°45' W 080°07'  
Track history (hours):
 
Tides and Currents Weather Stations Pressure Air Temp Water Temp Dewpoint Dewpoint Depression Visibility Wind Speed Wind Dir Waves Ship Positions

Jack Holland

More information available from US FCC via Universal Licensing System and Coast Guard Vessel Documentation Center.

Last reported at 2014-Jul-25 20:32 UTC. Time now 2014-Jul-25 20:43 UTC.
Position N 25°49' W 080°10'.

Length 22 m; draft 2.5 m.

Type: Tug. MMSI: 367442020.

Date/timePositionNaut miles runAvg speedWind from/ knotsBaromVisibWave heightAir tempDewpointWater temp
2014-Jul-25 20:32N 25°49' W 080°10'0 0.0
2014-Jul-25 19:23N 25°49' W 080°10'1 0.9
2014-Jul-25 18:24N 25°49' W 080°11'4 1.8
2014-Jul-25 16:28N 25°46' W 080°08'0 0.1
2014-Jul-25 15:24N 25°46' W 080°08'0 0.0
2014-Jul-25 14:19N 25°46' W 080°08'0 0.0
2014-Jul-25 13:33N 25°46' W 080°08'2 0.5
2014-Jul-25 10:15N 25°46' W 080°10'0 0.6
2014-Jul-25 09:31N 25°46' W 080°09'1 1.1
2014-Jul-25 08:19N 25°46' W 080°08'0 0.0
2014-Jul-25 07:33N 25°46' W 080°08'3 2.7
2014-Jul-25 06:21N 25°48' W 080°11'2 2.1
2014-Jul-25 05:33N 25°49' W 080°10'0 0.0
2014-Jul-25 04:21N 25°49' W 080°10'0 0.0
2014-Jul-25 02:31N 25°49' W 080°10'0 0.0
2014-Jul-24 22:11N 25°49' W 080°10'0 0.0
2014-Jul-24 21:26N 25°49' W 080°10'0 0.0
2014-Jul-24 20:30N 25°49' W 080°10'0 0.0
2014-Jul-24 18:23N 25°49' W 080°10'0 0.0
2014-Jul-24 17:31N 25°49' W 080°10'2 1.7
2014-Jul-24 16:32N 25°48' W 080°11'3 2.5
2014-Jul-24 15:16N 25°46' W 080°08'0 0.0
2014-Jul-24 14:05N 25°46' W 080°08'0 0.0
2014-Jul-24 13:17N 25°46' W 080°08'0 0.0
2014-Jul-24 12:33N 25°46' W 080°08'0 0.0
2014-Jul-24 11:33N 25°46' W 080°08'2 0.8
2014-Jul-24 08:33N 25°47' W 080°10'1 0.9
2014-Jul-24 07:29N 25°48' W 080°11'1 0.1
2014-Jul-23 19:31N 25°49' W 080°10'1 0.8
2014-Jul-23 18:32N 25°48' W 080°11'1 0.7
2014-Jul-23 17:03N 25°49' W 080°10'0 0.0
2014-Jul-23 16:26N 25°49' W 080°10'0 0.0
2014-Jul-23 15:32N 25°49' W 080°10'0 0.0
2014-Jul-23 14:18N 25°49' W 080°10'1 1.1
2014-Jul-23 13:31N 25°49' W 080°11'0 0.0
2014-Jul-23 11:18N 25°49' W 080°11'1 0.1
2014-Jul-23 04:10N 25°49' W 080°10'0 0.0
2014-Jul-22 01:33N 25°49' W 080°10'0 0.0
2014-Jul-21 22:09N 25°49' W 080°10'0 0.0
2014-Jul-21 20:31N 25°49' W 080°10'0 0.0
2014-Jul-21 20:18N 25°49' W 080°10'0 0.0
2014-Jul-21 19:33N 25°49' W 080°10'2 2.2
2014-Jul-21 18:33N 25°47' W 080°10'0 0.0
2014-Jul-21 13:23N 25°47' W 080°10'2 0.4
2014-Jul-21 08:28N 25°49' W 080°10'0 0.0
2014-Jul-21 07:12N 25°49' W 080°10'0 0.0
2014-Jul-21 06:26N 25°49' W 080°10'0 0.0
2014-Jul-20 23:26N 25°49' W 080°10'0 0.0
2014-Jul-20 21:07N 25°49' W 080°10'0 0.0
2014-Jul-20 19:33N 25°49' W 080°10'1 0.3
2014-Jul-20 17:24N 25°49' W 080°10'3 3.8
2014-Jul-20 16:31N 25°46' W 080°08'1 0.6
2014-Jul-20 15:32N 25°46' W 080°08'0 0.0
2014-Jul-20 14:33N 25°46' W 080°08'0 0.0
2014-Jul-20 13:29N 25°46' W 080°08'0 0.0
2014-Jul-20 12:29N 25°46' W 080°08'0 0.0
2014-Jul-20 11:33N 25°46' W 080°08'0 0.3
2014-Jul-20 10:33N 25°46' W 080°08'3 0.8
2014-Jul-20 07:23N 25°47' W 080°11'2 2.5
2014-Jul-20 06:33N 25°49' W 080°10'2 2.1
2014-Jul-20 05:31N 25°47' W 080°10'2 2.5
2014-Jul-20 04:33N 25°46' W 080°08'0 0.0
2014-Jul-20 03:33N 25°46' W 080°08'0 0.0
2014-Jul-20 02:33N 25°46' W 080°08'0 0.0
2014-Jul-20 01:33N 25°46' W 080°08'0 0.0
2014-Jul-20 00:31N 25°46' W 080°08'0 0.0
2014-Jul-19 23:33N 25°46' W 080°08'3 1.5
2014-Jul-19 21:16N 25°49' W 080°10'0 0.0
2014-Jul-19 19:28N 25°49' W 080°10'0 0.2
2014-Jul-19 18:08N 25°49' W 080°10'0 0.2
2014-Jul-19 17:11N 25°49' W 080°10'0 0.3
2014-Jul-19 16:19N 25°49' W 080°10'3 3.6
2014-Jul-19 15:33N 25°46' W 080°09'1 1.0
2014-Jul-19 14:31N 25°46' W 080°08'0 0.0
2014-Jul-19 13:33N 25°46' W 080°08'0 0.0
2014-Jul-19 12:32N 25°46' W 080°08'0 0.0
2014-Jul-19 11:33N 25°46' W 080°08'1 0.7
2014-Jul-19 09:28N 25°46' W 080°10'1 1.5
2014-Jul-19 08:33N 25°46' W 080°08'0 0.0
2014-Jul-19 06:33N 25°46' W 080°08'2 2.1
2014-Jul-19 05:28N 25°47' W 080°10'1 0.6
2014-Jul-19 04:08N 25°47' W 080°11'2 2.3
2014-Jul-19 03:20N 25°49' W 080°10'3 3.3
2014-Jul-19 02:31N 25°46' W 080°09'1 1.1
2014-Jul-19 01:33N 25°46' W 080°08'0 0.0
2014-Jul-19 00:33N 25°46' W 080°08'0 0.0
2014-Jul-18 21:27N 25°46' W 080°08'0 0.0
2014-Jul-18 20:29N 25°46' W 080°08'0 0.0
2014-Jul-18 19:30N 25°46' W 080°08'1 0.3
2014-Jul-18 17:25N 25°46' W 080°09'3 3.8
2014-Jul-18 16:33N 25°49' W 080°10'1 0.1
2014-Jul-18 12:13N 25°49' W 080°10'0 0.0
2014-Jul-18 11:28N 25°49' W 080°10'0 0.0
2014-Jul-18 10:25N 25°49' W 080°10'0 0.0
2014-Jul-18 09:28N 25°49' W 080°10'0 0.0
2014-Jul-18 08:33N 25°49' W 080°10'0 0.0
2014-Jul-18 07:32N 25°49' W 080°10'0 0.0
2014-Jul-18 06:32N 25°49' W 080°10'0 0.0
2014-Jul-18 05:20N 25°49' W 080°10'0 0.0
2014-Jul-18 04:32N 25°49' W 080°10'0 0.0
2014-Jul-18 03:32N 25°49' W 080°10'0 0.0
2014-Jul-17 20:14N 25°49' W 080°10'0 0.0
2014-Jul-17 18:15N 25°49' W 080°10'0 0.0
2014-Jul-17 17:29N 25°49' W 080°10'0 0.0
2014-Jul-17 14:15N 25°49' W 080°10'0 0.0
2014-Jul-17 13:20N 25°49' W 080°10'0 0.0
2014-Jul-17 12:31N 25°49' W 080°10'0 0.0
2014-Jul-17 11:28N 25°49' W 080°10'0 0.0
2014-Jul-17 10:30N 25°49' W 080°10'0 0.0
2014-Jul-17 09:33N 25°49' W 080°10'0 0.0
2014-Jul-17 08:27N 25°49' W 080°10'0 0.0
2014-Jul-17 07:20N 25°49' W 080°10'0 0.0
2014-Jul-17 06:33N 25°49' W 080°10'0 0.0
2014-Jul-17 05:33N 25°49' W 080°10'0 0.0
2014-Jul-17 04:23N 25°49' W 080°10'2 2.4
2014-Jul-17 03:29N 25°47' W 080°11'1 1.2
2014-Jul-17 02:32N 25°46' W 080°10'2 0.4
2014-Jul-16 20:29N 25°48' W 080°11'2 2.1
2014-Jul-16 19:22N 25°46' W 080°09'3 3.8
2014-Jul-16 18:33N 25°46' W 080°06'0 0.0
2014-Jul-16 17:33N 25°46' W 080°06'0 0.0
2014-Jul-16 16:33N 25°46' W 080°06'0 0.0
2014-Jul-16 15:33N 25°46' W 080°06'2 2.1
2014-Jul-16 14:32N 25°46' W 080°08'2 0.8
2014-Jul-16 12:22N 25°47' W 080°10'2 2.1
2014-Jul-16 11:18N 25°49' W 080°10'2 3.0
2014-Jul-16 10:32N 25°46' W 080°10'4 3.6
2014-Jul-16 09:33N 25°46' W 080°06'0 0.0
2014-Jul-16 08:33N 25°46' W 080°06'3 2.5
2014-Jul-16 07:31N 25°46' W 080°09'3 3.2
2014-Jul-16 06:33N 25°49' W 080°10'1 1.4
2014-Jul-16 05:33N 25°48' W 080°11'4 3.8
2014-Jul-16 04:34N 25°46' W 080°07'1 1.5
2014-Jul-16 03:34N 25°46' W 080°06'1 1.1
2014-Jul-16 02:32N 25°45' W 080°07'  

Dump ship's entire track history